createdAt,value
2017-12-04T00:01:19.508Z,35.75
2017-12-04T00:03:47.083Z,35.60
2017-12-04T00:06:14.656Z,33.90
2017-12-04T00:08:42.234Z,31.45
2017-12-04T00:11:09.782Z,34.00
2017-12-04T00:13:37.347Z,34.35
2017-12-04T00:16:05.678Z,34.13
2017-12-04T00:18:33.226Z,29.70
2017-12-04T00:21:00.799Z,36.80
2017-12-04T00:23:28.356Z,38.22
2017-12-04T00:25:55.925Z,37.90
2017-12-04T00:28:23.691Z,34.22
2017-12-04T00:30:51.293Z,42.72
2017-12-04T00:33:18.871Z,34.13
2017-12-04T00:35:46.458Z,35.70
2017-12-04T00:38:14.795Z,35.13
2017-12-04T00:40:42.371Z,33.30
2017-12-04T00:43:09.997Z,31.15
2017-12-04T00:45:37.551Z,34.58
2017-12-04T00:48:05.105Z,37.28
2017-12-04T00:50:32.717Z,34.08
2017-12-04T00:53:00.393Z,36.88
2017-12-04T00:55:28.710Z,39.40
2017-12-04T00:57:56.274Z,33.35
2017-12-04T01:00:23.861Z,33.88
2017-12-04T01:02:51.417Z,32.13
2017-12-04T01:05:18.997Z,35.20
2017-12-04T01:07:46.577Z,37.88
2017-12-04T01:10:14.912Z,34.10
2017-12-04T01:12:42.495Z,33.25
2017-12-04T01:15:10.043Z,34.95
2017-12-04T01:17:37.639Z,31.27
2017-12-04T01:20:05.209Z,42.53
2017-12-04T01:22:33.562Z,34.85
2017-12-04T01:25:01.094Z,39.17
2017-12-04T01:27:28.645Z,37.72
2017-12-04T01:29:56.232Z,36.00
2017-12-04T01:32:23.869Z,37.35
2017-12-04T01:34:51.458Z,44.03
2017-12-04T01:37:19.033Z,38.72
2017-12-04T01:39:46.587Z,39.38
2017-12-04T01:42:14.194Z,38.47
2017-12-04T01:44:42.515Z,33.80
2017-12-04T01:47:10.072Z,40.63
2017-12-04T01:49:38.266Z,37.30
2017-12-04T01:52:05.832Z,42.20
2017-12-04T01:54:33.475Z,32.45
2017-12-04T01:57:01.056Z,38.30
2017-12-04T01:59:28.724Z,41.20
2017-12-04T02:01:57.073Z,33.30
2017-12-04T02:04:24.637Z,36.03
2017-12-04T02:06:53.095Z,33.72
2017-12-04T02:09:20.625Z,33.50
2017-12-04T02:11:48.202Z,32.70
2017-12-04T02:14:16.546Z,36.88
2017-12-04T02:16:44.120Z,34.85
2017-12-04T02:19:11.709Z,40.05
2017-12-04T02:21:40.049Z,36.40
2017-12-04T02:24:07.630Z,36.20
2017-12-04T02:26:35.172Z,39.92
2017-12-04T02:29:02.755Z,40.30
2017-12-04T02:31:30.285Z,35.63
2017-12-04T02:33:57.858Z,37.70
2017-12-04T02:36:25.418Z,41.50
2017-12-04T02:38:53.002Z,41.22
2017-12-04T02:41:21.343Z,42.92
2017-12-04T02:43:48.901Z,41.95
2017-12-04T02:46:16.463Z,38.13
2017-12-04T02:48:44.008Z,37.00
2017-12-04T02:51:11.606Z,34.65
2017-12-04T02:53:39.144Z,43.15
2017-12-04T02:56:06.732Z,42.47
2017-12-04T02:58:34.393Z,44.80
2017-12-04T03:01:01.965Z,42.60
2017-12-04T03:03:29.538Z,43.38
2017-12-04T03:05:57.870Z,41.60
2017-12-04T03:08:25.451Z,37.38
2017-12-04T03:10:53.041Z,42.05
2017-12-04T03:13:21.387Z,40.35
2017-12-04T03:15:48.939Z,38.75
2017-12-04T03:18:16.510Z,44.95
2017-12-04T03:20:44.078Z,37.40
2017-12-04T03:23:11.625Z,39.80
2017-12-04T03:25:39.278Z,43.75
2017-12-04T03:28:06.817Z,43.50
2017-12-04T03:30:34.380Z,40.63
2017-12-04T03:33:01.934Z,38.03
2017-12-04T03:35:29.562Z,42.25
2017-12-04T03:37:57.118Z,46.20
2017-12-04T03:40:24.683Z,41.67
2017-12-04T03:42:52.242Z,41.25
2017-12-04T03:45:19.959Z,42.35
2017-12-04T03:47:47.534Z,45.00
2017-12-04T03:50:15.105Z,38.80
2017-12-04T03:52:42.685Z,48.60
2017-12-04T03:55:10.237Z,36.67
2017-12-04T03:57:37.806Z,35.80
2017-12-04T04:00:05.366Z,41.88
2017-12-04T04:02:32.950Z,38.05
2017-12-04T04:05:00.528Z,35.10
2017-12-04T04:07:28.841Z,35.20
2017-12-04T04:09:56.623Z,45.33
2017-12-04T04:12:24.258Z,45.28
2017-12-04T04:14:51.910Z,40.80
2017-12-04T04:17:19.696Z,40.10
2017-12-04T04:19:47.266Z,37.42
2017-12-04T04:22:14.818Z,52.97
2017-12-04T04:24:42.451Z,49.90
2017-12-04T04:27:10.788Z,54.22
2017-12-04T04:29:38.343Z,51.00
2017-12-04T04:32:05.996Z,51.75
2017-12-04T04:34:33.582Z,45.20
2017-12-04T04:37:01.176Z,54.75
2017-12-04T04:39:29.254Z,49.38
2017-12-04T04:41:57.589Z,48.65
2017-12-04T04:44:25.188Z,54.47
2017-12-04T04:46:53.529Z,43.50
2017-12-04T04:49:21.146Z,46.97
2017-12-04T04:51:49.476Z,46.28
2017-12-04T04:54:17.154Z,37.45
2017-12-04T04:56:44.829Z,43.97
2017-12-04T04:59:13.186Z,44.63
2017-12-04T05:01:40.744Z,42.22
2017-12-04T05:04:08.315Z,54.95
2017-12-04T05:06:35.890Z,43.03
2017-12-04T05:09:03.441Z,45.17
2017-12-04T05:11:31.003Z,57.72
2017-12-04T05:13:58.577Z,49.00
2017-12-04T05:16:26.878Z,56.53
2017-12-04T05:18:54.443Z,55.80
2017-12-04T05:21:21.985Z,52.67
2017-12-04T05:23:50.325Z,51.37
2017-12-04T05:26:17.898Z,48.03
2017-12-04T05:28:45.446Z,47.55
2017-12-04T05:31:13.126Z,51.00
2017-12-04T05:33:40.764Z,46.80
2017-12-04T05:36:08.334Z,50.95
2017-12-04T05:38:35.912Z,51.10
2017-12-04T05:41:03.519Z,52.50
2017-12-04T05:43:31.105Z,40.00
2017-12-04T05:45:58.674Z,42.28
2017-12-04T05:48:26.249Z,41.08
2017-12-04T05:50:53.878Z,40.28
2017-12-04T05:53:21.449Z,37.47
2017-12-04T05:55:49.025Z,43.78
2017-12-04T05:58:16.605Z,48.60
2017-12-04T06:00:44.166Z,40.70
2017-12-04T06:03:11.739Z,44.20
2017-12-04T06:05:39.322Z,47.00
2017-12-04T06:08:07.734Z,44.45
2017-12-04T06:10:35.309Z,37.88
2017-12-04T06:13:02.890Z,52.00
2017-12-04T06:15:30.462Z,36.42
2017-12-04T06:17:58.775Z,37.95
2017-12-04T06:20:26.370Z,42.03
2017-12-04T06:22:53.947Z,47.83
2017-12-04T06:25:21.538Z,43.13
2017-12-04T06:27:49.108Z,45.80
2017-12-04T06:30:16.673Z,41.83
2017-12-04T06:32:44.433Z,57.53
2017-12-04T06:35:12.780Z,56.33
2017-12-04T06:37:40.457Z,44.58
2017-12-04T06:40:08.071Z,52.50
2017-12-04T06:42:35.666Z,44.60
2017-12-04T06:45:03.982Z,46.83
2017-12-04T06:47:31.551Z,39.17
2017-12-04T06:49:59.135Z,44.70
2017-12-04T06:52:26.690Z,45.38
2017-12-04T06:54:54.498Z,49.80
2017-12-04T06:57:22.086Z,38.97
2017-12-04T06:59:49.666Z,42.13
2017-12-04T07:02:17.266Z,32.97
2017-12-04T07:04:45.581Z,42.10
2017-12-04T07:07:13.287Z,40.53
2017-12-04T07:09:40.841Z,36.38
2017-12-04T07:12:08.411Z,39.15
2017-12-04T07:14:35.980Z,38.63
2017-12-04T07:17:04.299Z,53.83
2017-12-04T07:19:31.937Z,37.88
2017-12-04T07:22:00.261Z,41.92
2017-12-04T07:24:27.891Z,41.13
2017-12-04T07:26:56.385Z,51.35
2017-12-04T07:29:23.977Z,50.53
2017-12-04T07:31:51.575Z,42.83
2017-12-04T07:34:19.357Z,49.63
2017-12-04T07:36:47.706Z,48.95
2017-12-04T07:39:15.244Z,55.05
2017-12-04T07:41:42.802Z,46.03
2017-12-04T07:44:10.434Z,56.50
2017-12-04T07:46:37.995Z,55.67
2017-12-04T07:49:06.354Z,58.45
2017-12-04T07:51:33.930Z,62.85
2017-12-04T07:54:02.269Z,55.28
2017-12-04T07:56:29.831Z,49.15
2017-12-04T07:58:57.410Z,52.62
2017-12-04T08:01:24.965Z,56.13
2017-12-04T08:03:52.533Z,52.95
2017-12-04T08:06:20.106Z,56.70
2017-12-04T08:08:48.442Z,62.97
2017-12-04T08:11:16.005Z,57.47
2017-12-04T08:13:43.570Z,60.58
2017-12-04T08:16:11.171Z,55.75
2017-12-04T08:18:38.720Z,56.42
2017-12-04T08:21:06.410Z,52.50
2017-12-04T08:23:34.750Z,50.80
2017-12-04T08:26:02.346Z,48.65
2017-12-04T08:28:30.690Z,50.40
2017-12-04T08:30:58.269Z,59.92
2017-12-04T08:33:26.702Z,64.43
2017-12-04T08:35:54.344Z,52.97
2017-12-04T08:38:22.708Z,49.42
2017-12-04T08:40:50.273Z,46.37
2017-12-04T08:43:18.619Z,46.67
2017-12-04T08:45:46.195Z,51.35
2017-12-04T08:48:13.768Z,45.17
2017-12-04T08:50:41.311Z,50.88
2017-12-04T08:53:08.894Z,45.15
2017-12-04T08:55:36.474Z,52.08
2017-12-04T08:58:04.809Z,49.25
2017-12-04T09:00:32.382Z,51.65
2017-12-04T09:02:59.970Z,50.40
2017-12-04T09:05:28.305Z,46.00
2017-12-04T09:07:55.881Z,41.95
2017-12-04T09:10:23.446Z,43.85
2017-12-04T09:12:51.060Z,45.20
2017-12-04T09:15:18.622Z,45.97
2017-12-04T09:17:46.205Z,42.70
2017-12-04T09:20:13.799Z,46.00
2017-12-04T09:22:41.406Z,56.50
2017-12-04T09:25:08.956Z,40.15
2017-12-04T09:27:37.291Z,42.75
2017-12-04T09:30:04.874Z,40.12
2017-12-04T09:32:32.504Z,43.47
2017-12-04T09:35:00.206Z,46.65
2017-12-04T09:37:28.571Z,47.35
2017-12-04T09:39:56.146Z,47.75
2017-12-04T09:42:24.472Z,49.80
2017-12-04T09:44:52.026Z,39.88
2017-12-04T09:47:19.598Z,34.70
2017-12-04T09:49:47.163Z,38.33
2017-12-04T09:52:14.811Z,43.75
2017-12-04T09:54:42.439Z,41.72
2017-12-04T09:57:10.162Z,42.42
2017-12-04T09:59:37.741Z,36.80
2017-12-04T10:02:05.339Z,40.75
2017-12-04T10:04:33.785Z,41.88
2017-12-04T10:07:01.368Z,49.53
2017-12-04T10:09:28.949Z,41.63
2017-12-04T10:11:57.314Z,44.73
2017-12-04T10:14:25.098Z,49.70
2017-12-04T10:16:53.446Z,50.80
2017-12-04T10:19:21.031Z,43.28
2017-12-04T10:21:48.611Z,38.45
2017-12-04T10:24:16.223Z,37.45
2017-12-04T10:26:43.798Z,38.03
2017-12-04T10:29:11.356Z,37.97
2017-12-04T10:31:38.914Z,40.80
2017-12-04T10:34:07.293Z,38.10
2017-12-04T10:36:34.865Z,44.10
2017-12-04T10:39:02.425Z,37.33
2017-12-04T10:41:30.717Z,34.80
2017-12-04T10:43:59.042Z,41.33
2017-12-04T10:46:26.665Z,42.30
2017-12-04T10:48:55.018Z,49.17
2017-12-04T10:51:22.610Z,38.27
2017-12-04T10:53:50.942Z,40.12
2017-12-04T10:56:18.531Z,41.63
2017-12-04T10:58:46.144Z,31.67
2017-12-04T11:01:13.693Z,47.63
2017-12-04T11:03:41.270Z,35.30
2017-12-04T11:06:08.826Z,33.20
2017-12-04T11:08:36.926Z,35.60
2017-12-04T11:11:04.538Z,29.97
2017-12-04T11:13:33.002Z,30.63
2017-12-04T11:16:00.697Z,29.03
2017-12-04T11:18:29.822Z,29.48
2017-12-04T11:20:57.362Z,27.33
2017-12-04T11:23:24.946Z,30.53
2017-12-04T11:25:52.601Z,25.43
2017-12-04T11:28:20.239Z,30.17
2017-12-04T11:30:47.835Z,28.33
2017-12-04T11:33:15.438Z,25.80
2017-12-04T11:35:43.039Z,24.97
2017-12-04T11:38:10.611Z,22.90
2017-12-04T11:40:38.203Z,25.37
2017-12-04T11:43:05.858Z,24.93
2017-12-04T11:45:33.419Z,24.40
2017-12-04T11:48:00.985Z,19.90
2017-12-04T11:50:28.551Z,27.70
2017-12-04T11:52:56.129Z,24.70
2017-12-04T11:55:23.709Z,30.63
2017-12-04T11:57:51.339Z,30.20
2017-12-04T12:00:19.603Z,25.60
2017-12-04T12:02:47.169Z,24.60
2017-12-04T12:05:14.754Z,21.40
2017-12-04T12:07:42.325Z,25.70
2017-12-04T12:10:11.314Z,27.30
2017-12-04T12:12:38.910Z,28.98
2017-12-04T12:15:07.374Z,30.27
2017-12-04T12:17:35.696Z,27.20
2017-12-04T12:20:03.477Z,27.17
2017-12-04T12:22:31.143Z,30.13
2017-12-04T12:24:58.699Z,25.03
2017-12-04T12:27:26.310Z,36.63
2017-12-04T12:29:54.678Z,37.63
2017-12-04T12:32:22.241Z,33.97
2017-12-04T12:34:50.620Z,42.00
2017-12-04T12:37:18.232Z,34.97
2017-12-04T12:39:45.831Z,35.03
2017-12-04T12:42:13.435Z,32.55
2017-12-04T12:44:41.782Z,38.97
2017-12-04T12:47:09.367Z,34.10
2017-12-04T12:49:37.023Z,42.37
2017-12-04T12:52:04.821Z,32.17
2017-12-04T12:54:33.399Z,36.33
2017-12-04T12:57:01.907Z,35.73
2017-12-04T12:59:29.498Z,45.43
2017-12-04T13:01:57.063Z,36.97
2017-12-04T13:04:24.618Z,41.50
2017-12-04T13:06:52.193Z,41.97
2017-12-04T13:09:19.788Z,41.83
2017-12-04T13:11:47.393Z,35.63
2017-12-04T13:14:14.965Z,36.05
2017-12-04T13:16:43.375Z,37.13
2017-12-04T13:19:11.078Z,46.60
2017-12-04T13:21:39.850Z,32.20
2017-12-04T13:24:07.534Z,42.40
2017-12-04T13:26:35.119Z,40.42
2017-12-04T13:29:03.453Z,38.38
2017-12-04T13:31:31.083Z,35.47
2017-12-04T13:34:11.282Z,37.90
2017-12-04T13:36:40.710Z,32.63
2017-12-04T13:39:08.302Z,29.23
2017-12-04T13:41:35.853Z,23.98
2017-12-04T13:44:03.446Z,30.25
2017-12-04T13:46:31.056Z,22.30
2017-12-04T13:48:58.633Z,27.45
2017-12-04T13:51:27.108Z,34.38
2017-12-04T13:53:55.551Z,37.13
2017-12-04T13:56:23.132Z,29.63
2017-12-04T13:58:50.711Z,26.83
2017-12-04T14:01:19.046Z,23.77
2017-12-04T14:03:46.643Z,29.05
2017-12-04T14:06:14.202Z,26.30
2017-12-04T14:08:41.842Z,39.65
2017-12-04T14:11:09.429Z,28.27
2017-12-04T14:13:37.877Z,27.13
2017-12-04T14:16:05.470Z,21.98
2017-12-04T14:18:33.062Z,22.52
2017-12-04T14:21:01.433Z,22.00
2017-12-04T14:23:28.999Z,23.80
2017-12-04T14:25:57.337Z,21.45
2017-12-04T14:28:24.928Z,23.93
2017-12-04T14:30:52.599Z,30.65
2017-12-04T14:33:21.089Z,20.10
2017-12-04T14:35:49.446Z,41.43
2017-12-04T14:38:17.868Z,26.58
2017-12-04T14:40:46.356Z,29.53
2017-12-04T14:43:13.947Z,26.00
2017-12-04T14:45:41.650Z,22.00
2017-12-04T14:48:09.267Z,21.05
2017-12-04T14:50:36.826Z,26.77
2017-12-04T14:53:04.394Z,26.08
2017-12-04T14:55:31.989Z,21.00
2017-12-04T14:58:00.479Z,26.85
2017-12-04T15:00:28.069Z,19.48
2017-12-04T15:02:56.390Z,24.80
2017-12-04T15:05:24.008Z,27.77
2017-12-04T15:07:52.343Z,19.87
2017-12-04T15:10:22.326Z,31.67
2017-12-04T15:12:51.165Z,30.83
2017-12-04T15:15:18.718Z,25.70
2017-12-04T15:17:46.308Z,23.98
2017-12-04T15:20:13.962Z,24.05
2017-12-04T15:22:41.619Z,19.15
2017-12-04T15:25:09.172Z,26.20
2017-12-04T15:27:36.755Z,25.55
2017-12-04T15:30:04.294Z,25.95
2017-12-04T15:32:31.879Z,17.45
2017-12-04T15:34:59.432Z,20.85
2017-12-04T15:37:27.074Z,23.87
2017-12-04T15:39:54.631Z,27.25
2017-12-04T15:42:22.256Z,48.65
2017-12-04T15:44:50.589Z,25.12
2017-12-04T15:47:18.173Z,25.60
2017-12-04T15:49:45.725Z,27.95
2017-12-04T15:52:13.330Z,25.17
2017-12-04T15:54:41.668Z,27.70
2017-12-04T15:57:09.282Z,31.23
2017-12-04T15:59:38.938Z,34.60
2017-12-04T16:02:06.557Z,34.08
2017-12-04T16:04:34.114Z,24.37
2017-12-04T16:07:02.651Z,31.70
2017-12-04T16:09:30.390Z,28.30
2017-12-04T16:11:57.969Z,26.92
2017-12-04T16:14:25.584Z,25.15
2017-12-04T16:16:55.403Z,22.08
2017-12-04T16:19:23.446Z,25.02
2017-12-04T16:21:51.016Z,30.88
2017-12-04T16:24:18.588Z,25.67
2017-12-04T16:26:47.062Z,25.40
2017-12-04T16:29:14.890Z,29.60
2017-12-04T16:31:42.577Z,21.55
2017-12-04T16:34:10.134Z,28.62
2017-12-04T16:36:37.731Z,33.65
2017-12-04T16:39:05.304Z,32.65
2017-12-04T16:41:33.625Z,34.95
2017-12-04T16:44:01.361Z,27.62
2017-12-04T16:46:28.972Z,30.67
2017-12-04T16:48:56.503Z,28.83
2017-12-04T16:51:24.079Z,32.67
2017-12-04T16:53:51.786Z,32.88
2017-12-04T16:56:19.351Z,37.80
2017-12-04T17:01:38.401Z,25.73
2017-12-04T17:04:18.080Z,19.80
2017-12-04T17:06:46.044Z,27.15
2017-12-04T17:09:14.511Z,26.83
2017-12-04T17:11:42.167Z,31.08
2017-12-04T17:14:09.863Z,22.50
2017-12-04T17:16:37.447Z,33.47
2017-12-04T17:19:05.139Z,30.90
2017-12-04T17:21:32.944Z,31.33
2017-12-04T17:24:00.890Z,30.17
2017-12-04T17:26:28.494Z,31.17
2017-12-04T17:28:56.119Z,34.90
2017-12-04T17:31:23.785Z,27.70
2017-12-04T17:33:51.431Z,26.67
2017-12-04T17:36:19.303Z,36.10
2017-12-04T17:38:57.563Z,28.25
2017-12-04T17:41:25.183Z,30.92
2017-12-04T17:43:53.781Z,28.12
2017-12-04T17:46:21.699Z,24.75
2017-12-04T17:48:51.018Z,35.03
2017-12-04T17:51:19.431Z,33.28
2017-12-04T17:53:58.960Z,31.02
2017-12-04T17:56:26.932Z,38.22
2017-12-04T17:58:54.587Z,28.05
2017-12-04T18:01:23.030Z,36.08
2017-12-04T18:04:02.125Z,45.30
2017-12-04T18:06:30.173Z,38.67
2017-12-04T18:08:59.295Z,37.25
2017-12-04T18:11:27.634Z,35.63
2017-12-04T18:13:56.354Z,49.08
2017-12-04T18:16:24.072Z,26.42
2017-12-04T18:19:02.678Z,39.97
2017-12-04T18:21:31.480Z,40.10
2017-12-04T18:23:59.143Z,31.05
2017-12-04T18:26:27.108Z,38.38
2017-12-04T18:28:55.199Z,40.65
2017-12-04T18:31:22.792Z,33.95
2017-12-04T18:33:50.631Z,38.55
2017-12-04T18:36:18.297Z,42.13
2017-12-04T18:38:45.903Z,40.97
2017-12-04T18:41:14.238Z,32.53
2017-12-04T18:43:41.915Z,35.65
2017-12-04T18:46:09.604Z,45.53
2017-12-04T18:48:39.980Z,36.40
2017-12-04T18:51:07.664Z,34.15
2017-12-04T18:53:35.443Z,45.05
2017-12-04T18:56:03.043Z,36.95
2017-12-04T18:58:30.824Z,46.55
2017-12-04T19:00:59.007Z,36.60
2017-12-04T19:03:26.823Z,49.35
2017-12-04T19:05:54.400Z,40.40
2017-12-04T19:08:22.148Z,40.97
2017-12-04T19:10:50.677Z,51.75
2017-12-04T19:13:18.417Z,44.63
2017-12-04T19:15:50.672Z,44.50
2017-12-04T19:18:18.477Z,45.58
2017-12-04T19:20:46.959Z,44.08
2017-12-04T19:23:14.583Z,42.30
2017-12-04T19:25:43.298Z,42.10
2017-12-04T19:28:11.003Z,39.42
2017-12-04T19:30:39.347Z,48.38
2017-12-04T19:33:07.033Z,46.63
2017-12-04T19:35:35.050Z,44.53
2017-12-04T19:38:03.911Z,39.08
2017-12-04T19:40:31.493Z,40.20
2017-12-04T19:42:59.046Z,38.38
2017-12-04T19:45:26.625Z,43.30
2017-12-04T19:47:54.430Z,55.70
2017-12-04T19:50:22.197Z,43.95
2017-12-04T19:52:52.403Z,42.75
2017-12-04T19:55:20.069Z,53.55
2017-12-04T19:57:48.622Z,51.80
2017-12-04T20:00:16.199Z,61.97
2017-12-04T20:02:43.811Z,53.60
2017-12-04T20:05:12.166Z,63.40
2017-12-04T20:07:39.839Z,50.67
2017-12-04T20:10:07.671Z,42.60
2017-12-04T20:12:35.265Z,48.35
2017-12-04T20:15:02.861Z,51.55
2017-12-04T20:17:33.577Z,48.72
2017-12-04T20:20:01.381Z,46.28
2017-12-04T20:22:29.092Z,59.08
2017-12-04T20:24:56.656Z,44.55
2017-12-04T20:27:24.351Z,52.35
2017-12-04T20:29:53.909Z,46.63
2017-12-04T20:32:22.277Z,55.28
2017-12-04T20:34:49.848Z,51.70
2017-12-04T20:37:17.476Z,36.47
2017-12-04T20:39:45.067Z,50.60
2017-12-04T20:42:12.627Z,53.55
2017-12-04T20:44:40.561Z,48.20
2017-12-04T20:47:08.243Z,47.15
2017-12-04T20:49:35.988Z,45.65
2017-12-04T20:52:03.672Z,41.33
2017-12-04T20:54:31.437Z,42.28
2017-12-04T20:56:58.994Z,35.35
2017-12-04T20:59:32.645Z,43.72
2017-12-04T21:02:00.315Z,40.22
2017-12-04T21:04:27.965Z,50.70
2017-12-04T21:06:56.701Z,47.90
2017-12-04T21:09:36.133Z,37.65
2017-12-04T21:12:04.012Z,37.15
2017-12-04T21:14:43.620Z,42.22
2017-12-04T21:17:23.036Z,43.20
2017-12-04T21:19:51.526Z,49.17
2017-12-04T21:22:19.176Z,48.87
2017-12-04T21:24:46.808Z,53.10
2017-12-04T21:27:15.374Z,50.12
2017-12-04T21:29:42.943Z,55.17
2017-12-04T21:32:11.302Z,54.83
2017-12-04T21:34:38.956Z,54.75
2017-12-04T21:37:06.526Z,53.38
2017-12-04T21:39:34.169Z,46.58
2017-12-04T21:42:01.745Z,55.97
2017-12-04T21:44:30.163Z,60.45
2017-12-04T21:46:58.767Z,49.85
2017-12-04T21:49:26.373Z,48.87
2017-12-04T21:51:53.962Z,57.13
2017-12-04T21:54:21.523Z,53.33
2017-12-04T21:56:49.099Z,54.30
2017-12-04T21:59:16.670Z,49.25
2017-12-04T22:01:44.989Z,56.25
2017-12-04T22:04:12.558Z,51.65
2017-12-04T22:06:41.103Z,51.22
2017-12-04T22:09:08.723Z,61.03
2017-12-04T22:11:36.379Z,58.63
2017-12-04T22:14:03.922Z,56.90
2017-12-04T22:16:31.519Z,47.80
2017-12-04T22:18:59.869Z,56.20
2017-12-04T22:21:27.463Z,48.83
2017-12-04T22:23:55.811Z,53.17
2017-12-04T22:26:23.390Z,55.10
2017-12-04T22:28:50.935Z,54.55
2017-12-04T22:31:18.533Z,59.10
2017-12-04T22:33:46.862Z,57.20
2017-12-04T22:36:14.442Z,56.22
2017-12-04T22:38:42.169Z,55.60
2017-12-04T22:41:09.747Z,60.80
2017-12-04T22:43:37.367Z,53.00
2017-12-04T22:46:05.703Z,56.85
2017-12-04T22:48:33.421Z,60.53
2017-12-04T22:51:00.977Z,53.67
2017-12-04T22:53:28.574Z,52.25
2017-12-04T22:55:56.234Z,52.83
2017-12-04T22:58:23.996Z,54.33
2017-12-04T23:00:51.683Z,56.85
2017-12-04T23:03:19.250Z,53.67
2017-12-04T23:05:46.821Z,50.40
2017-12-04T23:08:14.464Z,56.25
2017-12-04T23:10:42.045Z,52.40
2017-12-04T23:13:09.722Z,52.70
2017-12-04T23:15:37.290Z,54.42
2017-12-04T23:18:04.854Z,55.08
2017-12-04T23:20:33.186Z,50.42
2017-12-04T23:23:00.775Z,57.28
2017-12-04T23:25:28.366Z,57.92
2017-12-04T23:27:56.717Z,55.33
2017-12-04T23:30:24.321Z,54.33
2017-12-04T23:32:52.121Z,52.88
2017-12-04T23:35:21.072Z,55.35
2017-12-04T23:37:49.570Z,49.10
2017-12-04T23:40:17.918Z,46.58
2017-12-04T23:42:46.248Z,54.75
2017-12-04T23:45:14.326Z,49.28
2017-12-04T23:47:42.045Z,49.10
2017-12-04T23:50:10.419Z,49.95
2017-12-04T23:52:38.043Z,45.83
2017-12-04T23:55:05.654Z,49.22
2017-12-04T23:57:34.023Z,48.40
